Tiempo atmosférico en la estación meteorológica de Tuineje, Las Palmas (1 m.)



Fecha
DESCASC
Temp. máxima en grados centígrados (hora)
DESCASC
Temp. mínima en grados centígrados (hora)
DESCASC
Temp. media en grados centígrados
DESCASC
Racha de viento máxima en m/sg (hora)
DESCASC
Velocidad máxima media en intervalos de 10 minutos(hora)
DESCASC
Precipitaciones diarias en mm
DESCASC
Precipitaciones de 00:00 a 06:00 en mm
DESCASC
Precipitaciones de 06:00 a 12:00 en mm
DESCASC
Precipitaciones de 12:00 a 18:00 en mm
DESCASC
Precipitaciones de 18:00 a 24:00 en mm
DESCASC

Gráficas

Temp. máximas Temp. mínimas Temp. medias Precipitaciones Rachas de viento máximas Velocidades máximas media en intervalos de 10 minutos

Datos horarios

Fecha y hora oficial Temperatura (ºC) Velocidad del viento (km/h) Dirección del viento Racha (km/h) Dirección de racha Precipitación (mm) Presión (hPa) Tendencia (hPa) Humedad (%)
2019-09-18 23:00:00 22.4 14 Nordeste 28 Norte 0 -- -- 77
2019-09-18 22:00:00 22.7 16 Norte 28 Nordeste 0 -- -- 75
2019-09-18 21:00:00 22.9 18 Nordeste 27 Nordeste 0 -- -- 74
2019-09-18 20:00:00 23.6 23 Nordeste 30 Norte 0 -- -- 70
2019-09-18 19:00:00 25.2 20 Nordeste 33 Nordeste 0 -- -- 62
2019-09-18 18:00:00 25.6 14 Nordeste 27 Nordeste 0 -- -- 63
2019-09-18 17:00:00 24.9 18 Este 36 Este 0 -- -- 67
2019-09-18 16:00:00 24.9 17 Este 39 Este 0 -- -- 68
2019-09-18 15:00:00 24.3 21 Este 37 Este 0 -- -- 69
2019-09-18 14:00:00 24.5 18 Este 42 Este 0 -- -- 69
2019-09-18 13:00:00 24.7 19 Este 31 Este 0 -- -- 68
2019-09-18 12:00:00 25.4 12 Este 33 Nordeste 0 -- -- 64
2019-09-18 11:00:00 24.6 22 Nordeste 37 Nordeste 0 -- -- 63
2019-09-18 10:00:00 23.4 20 Nordeste 30 Norte 0 -- -- 69
2019-09-18 09:00:00 22.5 13 Nordeste 27 Nordeste 0 -- -- 73
2019-09-18 08:00:00 21.2 16 Nordeste 23 Nordeste 0 -- -- 77
2019-09-18 07:00:00 21.3 12 Nordeste 20 Nordeste 0 -- -- 78
2019-09-18 06:00:00 21.2 12 Nordeste 21 Norte 0 -- -- 78
2019-09-18 05:00:00 21.3 12 Nordeste 24 Nordeste 0 -- -- 78
2019-09-18 04:00:00 21.4 14 Nordeste 26 Nordeste 0 -- -- 79
2019-09-18 03:00:00 21.5 19 Nordeste 27 Norte 0 -- -- 79
2019-09-18 02:00:00 21.7 13 Norte 23 Norte 0 -- -- 79
2019-09-18 01:00:00 21.9 16 Nordeste 24 Norte 0 -- -- 79
2019-09-18 00:00:00 22.2 14 Nordeste 28 Nordeste 0 -- -- 78
2019-09-17 23:00:00 22.4 14 Nordeste 23 Norte 0 -- -- 78
2019-09-17 22:00:00 22.7 16 Nordeste 24 Nordeste 0 -- -- 77
2019-09-17 21:00:00 22.9 12 Nordeste 21 Nordeste 0 -- -- 76
2019-09-17 20:00:00 23.2 14 Este 27 Este 0 -- -- 75
2019-09-15 17:00:00 -- -- -- -- -- -- -- -- --
2019-09-15 16:00:00 28.2 17 Nordeste 30 Nordeste 0 -- -- 43
2019-09-15 15:00:00 26.8 18 Este 39 Este 0 -- -- 56
2019-09-15 14:00:00 28.7 22 Nordeste 38 Nordeste 0 -- -- 40
2019-09-15 13:00:00 28 21 Nordeste 35 Este 0 -- -- 44
2019-09-15 12:00:00 25.4 18 Este 31 Este 0 -- -- 67
2019-09-15 11:00:00 25.5 9 Este 27 Norte 0 -- -- 63
2019-09-15 10:00:00 23.8 16 Norte 25 Nordeste 0 -- -- 71
2019-09-15 09:00:00 22.5 9 Nordeste 17 Norte 0 -- -- 78
2019-09-15 08:00:00 20.8 7 Norte 12 Norte 0 -- -- 83
2019-09-15 07:00:00 21.1 10 Nordeste 21 Norte 0 -- -- 82
2019-09-15 06:00:00 21 7 Nordeste 23 Norte 0 -- -- 81
2019-09-15 05:00:00 21.5 14 Norte 26 Nordeste 0 -- -- 80
2019-09-15 04:00:00 21.7 16 Nordeste 24 Norte 0 -- -- 79
2019-09-15 03:00:00 21.8 10 Nordeste 18 Norte 0 -- -- 78
2019-09-15 02:00:00 22 13 Nordeste 20 Nordeste 0 -- -- 78
2019-09-15 01:00:00 22 14 Nordeste 25 Nordeste 0 -- -- 77
2019-09-15 00:00:00 22.2 18 Nordeste 26 Norte 0 -- -- 77
2019-09-14 23:00:00 22.6 12 Nordeste 29 Nordeste 0 -- -- 76
2019-09-14 22:00:00 22.8 19 Nordeste 30 Nordeste 0 -- -- 76
2019-09-14 21:00:00 22.9 13 Nordeste 22 Este 0 -- -- 76
2019-09-14 20:00:00 23.8 9 Este 27 Este 0 -- -- 70
2019-09-14 19:00:00 23.7 20 Este 41 Este 0 -- -- 76
2019-09-14 18:00:00 27 16 Nordeste 35 Este 0 -- -- 58
2019-09-14 17:00:00 24.2 20 Este 41 Este 0 -- -- 74
2019-09-14 16:00:00 23.9 25 Este 46 Nordeste 0 -- -- 75
2019-09-14 15:00:00 24.1 27 Este 46 Este 0 -- -- 74
2019-09-14 14:00:00 24.7 19 Este 37 Este 0 -- -- 71
2019-09-14 13:00:00 24.9 18 Este 32 Este 0 -- -- 68
2019-09-14 12:00:00 26.5 10 Norte 24 Este 0 -- -- 55
2019-09-14 11:00:00 25 11 Este 23 Norte 0 -- -- 70
2019-09-14 10:00:00 24.1 14 Norte 22 Nordeste 0 -- -- 66
2019-09-14 09:00:00 22.4 11 Norte 19 Norte 0 -- -- 74
2019-09-14 08:00:00 20.8 9 Norte 17 Norte 0 -- -- 78
2019-09-14 07:00:00 20.5 8 Nordeste 22 Norte 0 -- -- 78
2019-09-14 06:00:00 21.3 12 Norte 18 Nordeste 0 -- -- 75
2019-09-14 05:00:00 -- -- -- -- -- -- -- -- --
2019-09-14 04:00:00 20.6 10 Nordeste 19 Norte 0 -- -- 80
2019-09-14 03:00:00 20.8 9 Nordeste 14 Norte 0 -- -- 78
2019-09-14 02:00:00 21.5 7 Nordeste 17 Norte 0 -- -- 77
2019-09-14 01:00:00 22 10 Norte 20 Norte 0 -- -- 75
2019-09-14 00:00:00 22.4 11 Norte 24 Norte 0 -- -- 75
2019-09-13 23:00:00 22.6 13 Norte 29 Norte 0 -- -- 73
2019-09-13 22:00:00 23.1 12 Norte 26 Nordeste 0 -- -- 72
2019-09-13 21:00:00 24.2 12 Norte 24 Norte 0 -- -- 67
2019-09-13 20:00:00 25.2 13 Nordeste 21 Nordeste 0 -- -- 63
2019-09-13 19:00:00 25 16 Nordeste 26 Este 0 -- -- 65
2019-09-13 18:00:00 25.7 15 Este 33 Este 0 -- -- 66
2019-09-13 17:00:00 25.5 18 Este 33 Este 0 -- -- 68
2019-09-13 16:00:00 26.2 15 Este 36 Este 0 -- -- 65
2019-09-13 15:00:00 26.8 15 Este 33 Este 0 -- -- 60
2019-09-13 14:00:00 26.7 18 Nordeste 40 Este 0 -- -- 60
2019-09-13 13:00:00 25.4 19 Este 35 Este 0 -- -- 66
2019-09-13 12:00:00 27.2 16 Norte 29 Nordeste 0 -- -- 46
2019-09-13 11:00:00 26 17 Norte 32 Norte 0 -- -- 54
2019-09-13 10:00:00 24 17 Norte 31 Nordeste 0 -- -- 65
2019-09-13 09:00:00 22.6 10 Norte 19 Norte 0 -- -- 73
2019-09-13 08:00:00 20.4 3 Este 14 Norte 0 -- -- 81
2019-09-13 07:00:00 20.5 8 Nordeste 21 Norte 0 -- -- 81
2019-09-13 06:00:00 21.2 10 Norte 24 Norte 0 -- -- 80
2019-09-13 05:00:00 21.5 12 Norte 31 Norte 0 -- -- 78
2019-09-13 04:00:00 21.9 15 Norte 34 Norte 0 -- -- 76
2019-09-13 03:00:00 22.1 16 Norte 33 Norte 0 -- -- 75
2019-09-13 02:00:00 22.5 21 Norte 40 Norte 0 -- -- 73
2019-09-13 01:00:00 22.8 14 Norte 26 Noroeste 0 -- -- 67
2019-09-13 00:00:00 23.3 12 Norte 31 Norte 0 -- -- 64
2019-09-12 23:00:00 23.6 13 Norte 29 Norte 0 -- -- 61
2019-09-12 22:00:00 23.5 18 Norte 37 Norte 0 -- -- 65
2019-09-12 21:00:00 23.9 21 Norte 40 Norte 0 -- -- 64
2019-09-12 20:00:00 24.9 20 Norte 37 Norte 0 -- -- 58
2019-09-12 19:00:00 25.7 21 Norte 39 Norte 0 -- -- 60
2019-09-12 18:00:00 26.6 27 Norte 46 Norte 0 -- -- 57
2019-09-12 17:00:00 27.7 22 Norte 41 Norte 0 -- -- 52
2019-09-12 16:00:00 28.4 23 Norte 46 Norte 0 -- -- 48
2019-09-12 15:00:00 29 22 Norte 39 Nordeste 0 -- -- 43
2019-09-12 14:00:00 28.3 23 Norte 43 Norte 0 -- -- 46
2019-09-12 13:00:00 27.8 22 Norte 42 Norte 0 -- -- 47
2019-09-12 12:00:00 26.6 23 Norte 42 Norte 0 -- -- 50
2019-09-12 11:00:00 25.5 21 Norte 41 Norte 0 -- -- 55
2019-09-12 10:00:00 24.2 24 Norte 46 Norte 0 -- -- 60
2019-09-12 09:00:00 22.8 22 Norte 38 Norte 0 -- -- 67
2019-09-12 08:00:00 21.4 21 Norte 41 Norte 0 -- -- 72
2019-09-12 07:00:00 21.4 20 Norte 37 Norte 0 -- -- 71
2019-09-12 06:00:00 21.4 21 Norte 36 Norte 0 -- -- 70
2019-09-12 05:00:00 21.2 17 Norte 37 Norte 0 -- -- 71
2019-09-12 04:00:00 21.3 15 Norte 32 Norte 0 -- -- 70
2019-09-12 03:00:00 21.2 15 Norte 32 Norte 0 -- -- 72
2019-09-12 02:00:00 21.1 12 Norte 32 Norte 0 -- -- 69
2019-09-12 01:00:00 21.5 17 Norte 36 Norte 0 -- -- 66
2019-09-12 00:00:00 21.6 17 Norte 41 Norte 0 -- -- 65
2019-09-11 23:00:00 21.8 15 Norte 38 Norte 0 -- -- 65
2019-09-11 22:00:00 22.1 16 Norte 36 Norte 0 -- -- 66
2019-09-11 21:00:00 22.4 20 Norte 39 Norte 0 -- -- 63
2019-09-11 20:00:00 23.2 21 Norte 43 Norte 0 -- -- 60
2019-09-11 19:00:00 24.6 22 Norte 41 Norte 0 -- -- 55
2019-09-11 18:00:00 25.9 22 Norte 40 Norte 0 -- -- 54
2019-09-11 17:00:00 26.5 24 Norte 38 Norte 0 -- -- 49
2019-09-11 16:00:00 27.5 21 Norte 40 Norte 0 -- -- 45
2019-09-11 15:00:00 25.3 23 Este 35 Nordeste 0 -- -- 60
2019-09-11 14:00:00 25.2 21 Nordeste 42 Nordeste 0 -- -- 62
2019-09-11 13:00:00 27 18 Nordeste 36 Nordeste 0 -- -- 51
2019-09-11 12:00:00 26.1 11 Nordeste 39 Nordeste 0 -- -- 53
2019-09-11 11:00:00 25.5 16 Norte 34 Nordeste 0 -- -- 52
2019-09-11 10:00:00 24.6 21 Nordeste 36 Nordeste 0 -- -- 56
2019-09-11 09:00:00 22.8 10 Norte 23 Norte 0 -- -- 60
2019-09-11 08:00:00 21.6 9 Norte 20 Norte 0 -- -- 63
2019-09-11 07:00:00 21.7 11 Norte 21 Norte 0 -- -- 64
2019-09-11 06:00:00 21.8 10 Norte 21 Norte 0 -- -- 65
2019-09-11 05:00:00 21.8 12 Norte 27 Norte 0 -- -- 66
2019-09-11 04:00:00 22 15 Norte 26 Norte 0 -- -- 65
2019-09-11 03:00:00 22 12 Nordeste 20 Norte 0 -- -- 68
2019-09-11 02:00:00 22 12 Norte 21 Noroeste 0 -- -- 70
2019-09-11 01:00:00 22.2 10 Norte 19 Nordeste 0 -- -- 71
2019-09-11 00:00:00 22.7 12 Norte 24 Nordeste 0 -- -- 71
2019-09-10 23:00:00 23.1 19 Nordeste 27 Nordeste 0 -- -- 72
2019-09-10 22:00:00 23.5 18 Nordeste 29 Nordeste 0 -- -- 71
2019-09-10 21:00:00 23.9 17 Nordeste 29 Nordeste 0 -- -- 71
2019-09-10 20:00:00 24.5 18 Nordeste 32 Nordeste 0 -- -- 67
2019-09-10 19:00:00 25.3 24 Nordeste 34 Nordeste 0 -- -- 63
2019-09-10 18:00:00 26.1 22 Nordeste 37 Este 0 -- -- 62
2019-09-10 17:00:00 25.1 25 Este 41 Este 0 -- -- 68
2019-09-10 16:00:00 25.6 21 Este 38 Este 0 -- -- 65
2019-09-10 15:00:00 26.9 20 Este 36 Este 0 -- -- 59
2019-09-10 14:00:00 25.5 19 Este 38 Este 0 -- -- 66
2019-09-10 13:00:00 25.6 15 Este 29 Este 0 -- -- 64
2019-09-10 12:00:00 25.7 21 Nordeste 32 Nordeste 0 -- -- 59
2019-09-10 11:00:00 24.8 22 Nordeste 33 Nordeste 0 -- -- 63
2019-09-10 10:00:00 23.7 20 Nordeste 31 Nordeste 0 -- -- 67
2019-09-10 09:00:00 22.8 13 Nordeste 22 Norte 0 -- -- 72
2019-09-10 08:00:00 21.2 15 Norte 26 Norte 0 -- -- 79
2019-09-10 07:00:00 21.2 13 Norte 24 Norte 0 -- -- 78
2019-09-10 06:00:00 21 13 Norte 25 Norte 0 -- -- 78
2019-09-10 05:00:00 21.3 13 Norte 21 Norte 0 -- -- 79
2019-09-10 04:00:00 21.6 12 Norte 23 Nordeste 0 -- -- 77
2019-09-10 03:00:00 21.8 9 Norte 32 Norte 0 -- -- 78
2019-09-10 02:00:00 22 18 Norte 31 Norte 0 -- -- 77
2019-09-10 01:00:00 22.3 18 Norte 26 Norte 0 -- -- 76
2019-09-10 00:00:00 22.7 9 Nordeste 13 Nordeste 0 -- -- 75
2019-09-09 23:00:00 22.9 9 Nordeste 18 Nordeste 0 -- -- 75
2019-09-09 22:00:00 23.3 12 Nordeste 23 Nordeste 0 -- -- 74
2019-09-09 21:00:00 23.7 5 Este 21 Nordeste 0 -- -- 73
2019-09-09 20:00:00 24.8 13 Nordeste 24 Este 0 -- -- 66
2019-09-09 19:00:00 26.4 15 Nordeste 28 Norte 0 -- -- 62
2019-09-09 18:00:00 27.8 13 Nordeste 38 Este 0 -- -- 57
2019-09-09 17:00:00 24.7 24 Este 44 Sudeste 0 -- -- 72
2019-09-09 16:00:00 25.7 17 Este 34 Sudeste 0 -- -- 68
2019-09-09 15:00:00 27.3 14 Nordeste 46 Este 0 -- -- 57
2019-09-09 14:00:00 23.7 24 Este 48 Este 0 -- -- 74
2019-09-09 13:00:00 24.7 18 Este 39 Este 0 -- -- 68
2019-09-09 12:00:00 25.9 13 Nordeste 27 Nordeste 0 -- -- 61
2019-09-09 11:00:00 24.7 17 Nordeste 32 Nordeste 0 -- -- 65
2019-09-09 10:00:00 23.6 18 Nordeste 28 Nordeste 0 -- -- 69
2019-09-09 09:00:00 22.9 9 Nordeste 22 Norte 0 -- -- 72
2019-09-09 08:00:00 21.6 15 Nordeste 23 Norte 0 -- -- 78
2019-09-09 07:00:00 21.7 12 Norte 19 Norte 0 -- -- 79
2019-09-09 06:00:00 21.8 10 Nordeste 19 Norte 0 -- -- 79
2019-09-09 05:00:00 22.1 7 Norte 19 Norte 0 -- -- 78
2019-09-09 04:00:00 22.3 12 Norte 15 Norte 0 -- -- 78
2019-09-09 03:00:00 22.6 12 Norte 22 Nordeste 0 -- -- 76
2019-09-09 02:00:00 22.8 15 Nordeste 21 Nordeste 0 -- -- 76
2019-09-09 01:00:00 23.2 13 Nordeste 19 Nordeste 0 -- -- 76
2019-09-09 00:00:00 23.7 9 Nordeste 17 Nordeste 0 -- -- 75
2019-09-08 23:00:00 23.4 12 Nordeste 17 Nordeste 0 -- -- 78
2019-09-08 22:00:00 23.8 13 Nordeste 23 Nordeste 0 -- -- 75
2019-09-08 21:00:00 23.9 6 Sudoeste 16 Sudoeste 0 -- -- 77
2019-09-08 20:00:00 24 9 Sudoeste 17 Sudoeste 0 -- -- 81
2019-09-08 19:00:00 25.6 12 Sudoeste 15 Sudoeste 0 -- -- 72
2019-09-08 18:00:00 25.2 8 Sudeste 23 Sudeste 0 -- -- 74
2019-09-08 17:00:00 25.4 10 Este 30 Este 0 -- -- 73
2019-09-08 16:00:00 25.2 12 Sudeste 27 Sudeste 0 -- -- 73
2019-09-08 15:00:00 25.4 12 Sur 27 Sudeste 0 -- -- 77
2019-09-08 14:00:00 24.7 15 Este 31 Este 0 -- -- 78
2019-09-08 13:00:00 24.4 19 Este 32 Este 0 -- -- 80
2019-09-08 12:00:00 26.8 6 Sudeste 26 Norte 0 -- -- 67
2019-09-08 11:00:00 26 13 Norte 23 Nordeste 0 -- -- 65
2019-09-08 10:00:00 24.6 11 Nordeste 20 Norte 0 -- -- 72
2019-09-08 09:00:00 23.9 7 Norte 13 Norte 0 -- -- 75
2019-09-08 08:00:00 23.4 8 Norte 14 Norte 0 -- -- 77
2019-09-08 07:00:00 23.6 5 Norte 17 Noroeste 0 -- -- 74
2019-09-08 06:00:00 23.6 7 Norte 16 Norte 0 -- -- 73
2019-09-08 05:00:00 23.3 8 Norte 18 Noroeste 0 -- -- 73
2019-09-08 04:00:00 23.6 8 Norte 14 Norte 0 -- -- 66
2019-09-08 03:00:00 23.6 8 Norte 21 Noroeste 0 -- -- 67
2019-09-08 02:00:00 23.4 8 Norte 17 Norte 0 -- -- 68
2019-09-08 01:00:00 23.5 5 Norte 21 Noroeste 0 -- -- 67
2019-09-08 00:00:00 23.4 11 Norte 24 Norte 0 -- -- 69
2019-09-07 23:00:00 23.3 12 Norte 24 Norte 0 -- -- 72
2019-09-07 22:00:00 23.2 14 Norte 26 Norte 0 -- -- 71
2019-09-07 21:00:00 23.6 12 Norte 30 Norte 0 -- -- 64
2019-09-07 20:00:00 23.9 19 Norte 36 Norte 0 -- -- 65
2019-09-07 19:00:00 24.8 18 Norte 35 Norte 0 -- -- 62
2019-09-07 18:00:00 25.3 20 Norte 40 Norte 0 -- -- 59
2019-09-07 17:00:00 25.7 23 Norte 41 Norte 0 -- -- 60
2019-09-07 16:00:00 26.8 13 Norte 37 Norte 0 -- -- 57
2019-09-07 15:00:00 27 18 Norte 40 Noroeste 0 -- -- 55
2019-09-07 14:00:00 27.6 13 Norte 30 Norte 0 -- -- 52
2019-09-07 13:00:00 26.2 19 Norte 37 Norte 0 -- -- 56
2019-09-07 12:00:00 25.2 14 Norte 33 Norte 0 -- -- 61
2019-09-07 11:00:00 24.6 13 Norte 25 Norte 0 -- -- 62
2019-09-07 10:00:00 24 10 Norte 17 Norte 0 -- -- 61
2019-09-07 09:00:00 23.2 9 Norte 19 Noroeste 0 -- -- 65
2019-09-07 08:00:00 22.9 7 Norte 15 Norte 0 -- -- 68
2019-09-07 07:00:00 22.8 5 Norte 15 Norte 0 -- -- 68
2019-09-07 06:00:00 22.7 6 Norte 19 Norte 0 -- -- 66
2019-09-07 05:00:00 22.8 11 Norte 18 Norte 0 -- -- 66
2019-09-07 04:00:00 22.4 6 Norte 14 Norte 0 -- -- 70
2019-09-07 03:00:00 22.5 5 Nordeste 19 Nordeste 0 -- -- 69
2019-09-07 02:00:00 22.8 13 Norte 24 Norte 0 -- -- 70
2019-09-07 01:00:00 23.2 9 Nordeste 21 Norte 0 -- -- 69
2019-09-07 00:00:00 23.4 7 Norte 21 Norte 0 -- -- 65
2019-09-06 23:00:00 23.5 9 Norte 21 Norte 0 -- -- 64
2019-09-06 22:00:00 23.6 12 Norte 24 Norte 0 -- -- 63
2019-09-06 21:00:00 23.9 13 Norte 28 Norte 0 -- -- 63
2019-09-06 20:00:00 24.2 15 Norte 33 Norte 0 -- -- 63
2019-09-06 19:00:00 24.6 13 Norte 35 Norte 0 -- -- 63
2019-09-06 18:00:00 25.1 15 Norte 50 Norte 0 -- -- 60
2019-09-06 17:00:00 26.4 23 Norte 41 Norte 0 -- -- 56
2019-09-06 16:00:00 24 18 Sur 30 Sur 0 -- -- 74
2019-09-06 15:00:00 24.6 18 Sur 26 Sur 0 -- -- 73
2019-09-06 14:00:00 27.6 10 Norte 22 Norte 0 -- -- 56
2019-09-06 13:00:00 26.6 9 Norte 26 Sur 0 -- -- 59
2019-09-06 12:00:00 26 7 Sudeste 29 Nordeste 0 -- -- 63
2019-09-06 11:00:00 26.3 15 Norte 28 Nordeste 0 -- -- 58
2019-09-06 10:00:00 25.1 15 Nordeste 30 Norte 0 -- -- 59
2019-09-06 09:00:00 22.3 6 Nordeste 12 Nordeste 0 -- -- 70
2019-09-06 08:00:00 20.4 0 Calma 6 Nordeste 0 -- -- 76
2019-09-06 07:00:00 20.6 4 Nordeste 13 Noroeste 0 -- -- 75
2019-09-06 06:00:00 20.7 5 Nordeste 8 Nordeste 0 -- -- 75
2019-09-06 05:00:00 20.8 4 Nordeste 20 Noroeste 0 -- -- 73
2019-09-06 04:00:00 21.5 8 Noroeste 18 Norte 0 -- -- 73
2019-09-06 03:00:00 21.9 9 Norte 16 Norte 0 -- -- 73
2019-09-06 02:00:00 22.2 5 Noroeste 19 Noroeste 0 -- -- 67
2019-09-06 01:00:00 22.6 11 Norte 29 Noroeste 0 -- -- 70
2019-09-06 00:00:00 22.7 16 Norte 25 Norte 0 -- -- 71
2019-09-05 23:00:00 23.1 12 Norte 27 Norte 0 -- -- 67
2019-09-05 22:00:00 23.2 15 Norte 28 Noroeste 0 -- -- 69
2019-09-05 21:00:00 23.7 19 Norte 29 Norte 0 -- -- 67
2019-09-05 20:00:00 24.7 8 Noroeste 23 Oeste 0 -- -- 62
2019-09-05 19:00:00 24.6 7 Sudeste 19 Este 0 -- -- 72
2019-09-05 18:00:00 25.4 10 Sudeste 23 Este 0 -- -- 68
2019-09-05 17:00:00 25.3 9 Sudeste 17 Sur 0 -- -- 67
2019-09-05 16:00:00 25.8 12 Sur 15 Sur 0 -- -- 63
2019-09-05 15:00:00 26.9 10 Sur 18 Sur 0 -- -- 61
2019-09-05 14:00:00 25.4 10 Sudeste 27 Sudeste 0 -- -- 65
2019-09-05 13:00:00 24.5 17 Sudeste 33 Este 0 -- -- 67
2019-09-05 12:00:00 27.3 10 Norte 24 Nordeste 0 -- -- 52
2019-09-05 11:00:00 24.9 13 Nordeste 26 Nordeste 0 -- -- 60
2019-09-05 10:00:00 24.5 14 Norte 23 Norte 0 -- -- 62
2019-09-05 09:00:00 22.8 9 Nordeste 15 Norte 0 -- -- 75
2019-09-05 08:00:00 21 6 Nordeste 11 Nordeste 0 -- -- 81
2019-09-05 07:00:00 21.2 6 Norte 10 Norte 0 -- -- 80
2019-09-05 06:00:00 21.4 6 Nordeste 18 Norte 0 -- -- 80
2019-09-05 05:00:00 21.7 13 Norte 23 Norte 0 -- -- 78
2019-09-05 04:00:00 21.9 12 Norte 24 Norte 0 -- -- 76
2019-09-05 03:00:00 21.9 9 Nordeste 18 Nordeste 0 -- -- 75
2019-09-05 02:00:00 22 12 Nordeste 23 Nordeste 0 -- -- 73
2019-09-05 01:00:00 22.2 16 Nordeste 22 Nordeste 0 -- -- 73
2019-09-05 00:00:00 22.6 15 Norte 26 Norte 0 -- -- 70
2019-09-04 23:00:00 23 13 Norte 23 Norte 0 -- -- 69
2019-09-04 22:00:00 23.4 13 Norte 26 Norte 0 -- -- 67
2019-09-04 21:00:00 24.1 8 Nordeste 19 Nordeste 0 -- -- 62
2019-09-04 20:00:00 24.2 6 Sudoeste 14 Sudoeste 0 -- -- 66
2019-09-04 19:00:00 24.9 6 Sudeste 27 Este 0 -- -- 62
2019-09-04 18:00:00 24.2 14 Este 35 Este 0 -- -- 73
2019-09-04 17:00:00 24.8 12 Este 33 Nordeste 0 -- -- 69
2019-09-04 16:00:00 25.1 16 Sudeste 31 Este 0 -- -- 68
2019-09-04 15:00:00 24.7 18 Este 46 Este 0 -- -- 71
2019-09-04 14:00:00 23.9 23 Este 46 Sudeste 0 -- -- 73
2019-09-04 13:00:00 23.9 22 Este 42 Sudeste 0 -- -- 69
2019-09-04 12:00:00 25.3 15 Este 29 Sudeste 0 -- -- 66
2019-09-04 11:00:00 25.6 10 Nordeste 21 Norte 0 -- -- 56
2019-09-04 10:00:00 24.1 13 Norte 23 Nordeste 0 -- -- 63
2019-09-04 09:00:00 22.8 13 Norte 21 Norte 0 -- -- 74
2019-09-04 08:00:00 21 8 Nordeste 18 Nordeste 0 -- -- 80
2019-09-04 07:00:00 21.1 9 Norte 17 Norte 0 -- -- 78
2019-09-04 06:00:00 21.4 10 Norte 21 Norte 0 -- -- 77
2019-09-04 05:00:00 21.3 8 Nordeste 15 Nordeste 0 -- -- 76
2019-09-04 04:00:00 21.6 8 Norte 17 Norte 0 -- -- 73
2019-09-04 03:00:00 21.8 8 Norte 17 Norte 0 -- -- 73
2019-09-04 02:00:00 22.1 9 Norte 18 Norte 0 -- -- 73
2019-09-04 01:00:00 22.4 11 Norte 19 Norte 0 -- -- 73
2019-09-04 00:00:00 22.6 13 Norte 24 Norte 0 -- -- 71
2019-09-03 23:00:00 23 12 Norte 26 Norte 0 -- -- 70
2019-09-03 22:00:00 23.4 13 Norte 28 Norte 0 -- -- 69
2019-09-03 21:00:00 24.1 13 Nordeste 21 Nordeste 0 -- -- 65
2019-09-03 20:00:00 24.5 5 Sudoeste 10 Oeste 0 -- -- 66
2019-09-03 19:00:00 25.8 8 Sudoeste 13 Sudoeste 0 -- -- 61
2019-09-03 18:00:00 25.8 7 Sur 24 Este 0 -- -- 62
2019-09-03 17:00:00 24.5 14 Este 37 Este 0 -- -- 71
2019-09-03 16:00:00 24.2 15 Este 36 Este 0 -- -- 70
2019-09-03 15:00:00 24.2 16 Sudeste 30 Este 0 -- -- 71
2019-09-03 14:00:00 24.3 16 Este 39 Este 0 -- -- 70
2019-09-03 13:00:00 23.8 21 Este 37 Este 0 -- -- 67
2019-09-03 12:00:00 24 19 Este 36 Este 0 -- -- 66
2019-09-03 11:00:00 24.8 10 Este 21 Este 0 -- -- 67
2019-09-03 10:00:00 23.5 9 Norte 17 Nordeste 0 -- -- 69
2019-09-03 09:00:00 22.3 8 Norte 15 Norte 0 -- -- 73
2019-09-03 08:00:00 19.7 9 Nordeste 13 Nordeste 0 -- -- 79
2019-09-03 07:00:00 19.8 8 Nordeste 11 Nordeste 0 -- -- 78
2019-09-03 06:00:00 20.1 8 Nordeste 12 Nordeste 0 -- -- 76
2019-09-03 05:00:00 21.3 8 Norte 15 Nordeste 0 -- -- 74
2019-09-03 04:00:00 21.4 9 Norte 15 Norte 0 -- -- 75
2019-09-03 03:00:00 21.7 10 Nordeste 18 Nordeste 0 -- -- 74
2019-09-03 02:00:00 22 10 Nordeste 22 Nordeste 0 -- -- 73
2019-09-03 01:00:00 22.3 13 Nordeste 20 Nordeste 0 -- -- 73
2019-09-03 00:00:00 22.4 7 Nordeste 18 Nordeste 0 -- -- 74
2019-09-02 23:00:00 22.6 11 Nordeste 23 Nordeste 0 -- -- 72
2019-09-02 22:00:00 22.9 14 Nordeste 19 Nordeste 0 -- -- 69
2019-09-02 21:00:00 23.5 12 Nordeste 27 Nordeste 0 -- -- 64
2019-09-02 20:00:00 24.2 14 Nordeste 24 Este 0 -- -- 60
2019-09-02 19:00:00 24.6 13 Este 21 Este 0 -- -- 64
2019-09-02 18:00:00 24.7 11 Sudeste 37 Este 0 -- -- 65
2019-09-02 17:00:00 23.5 18 Este 35 Este 0 -- -- 71
2019-09-02 16:00:00 24.1 17 Este 33 Este 0 -- -- 70
2019-09-02 15:00:00 24.6 15 Este 31 Sudeste 0 -- -- 68
2019-09-02 14:00:00 24.3 13 Sudeste 35 Este 0 -- -- 63
2019-09-02 13:00:00 24.3 15 Este 32 Este 0 -- -- 62
2019-09-02 12:00:00 24.5 14 Este 28 Sudeste 0 -- -- 66
2019-09-02 11:00:00 24.8 6 Nordeste 20 Nordeste 0 -- -- 58
2019-09-02 10:00:00 24.3 4 Norte 21 Nordeste 0 -- -- 60
2019-09-02 09:00:00 22.1 11 Nordeste 17 Nordeste 0 -- -- 65
2019-09-02 08:00:00 20.3 9 Nordeste 12 Norte 0 -- -- 72
2019-09-02 07:00:00 20 5 Nordeste 12 Noroeste 0 -- -- 75
2019-09-02 06:00:00 20.6 8 Nordeste 18 Norte 0 -- -- 75
2019-09-02 05:00:00 21 6 Norte 17 Norte 0 -- -- 75
2019-09-02 04:00:00 21.5 10 Norte 23 Norte 0 -- -- 75
2019-09-02 03:00:00 21.6 12 Nordeste 27 Nordeste 0 -- -- 75
2019-09-02 02:00:00 22 13 Norte 26 Nordeste 0 -- -- 74
2019-09-02 01:00:00 22.1 16 Nordeste 27 Norte 0 -- -- 73
2019-09-02 00:00:00 22.3 21 Nordeste 34 Norte 0 -- -- 72
2019-09-01 23:00:00 22.8 15 Nordeste 25 Nordeste 0 -- -- 74
2019-09-01 22:00:00 22.8 15 Nordeste 28 Nordeste 0 -- -- 73
2019-09-01 21:00:00 23.4 17 Nordeste 27 Nordeste 0 -- -- 70
2019-09-01 20:00:00 23.9 17 Nordeste 33 Este 0 -- -- 69
2019-09-01 19:00:00 24.3 18 Nordeste 33 Este 0 -- -- 68
2019-09-01 18:00:00 25.4 19 Nordeste 33 Este 0 -- -- 63
2019-09-01 17:00:00 25.3 19 Nordeste 42 Nordeste 0 -- -- 64
2019-09-01 16:00:00 24.1 21 Este 43 Este 0 -- -- 71
2019-09-01 15:00:00 23.4 23 Este 50 Nordeste 0 -- -- 74
2019-09-01 14:00:00 23.2 24 Nordeste 58 Este 0 -- -- 76
2019-09-01 13:00:00 23.8 24 Este 41 Este 0 -- -- 72
2019-09-01 12:00:00 25.9 17 Nordeste 32 Nordeste 0 -- -- 58
2019-09-01 11:00:00 25.8 13 Norte 31 Nordeste 0 -- -- 56
2019-09-01 10:00:00 23.7 20 Nordeste 30 Norte 0 -- -- 66
2019-09-01 09:00:00 22.8 14 Nordeste 29 Nordeste 0 -- -- 71
2019-09-01 08:00:00 22.3 14 Nordeste 25 Nordeste 0 -- -- 70
2019-09-01 07:00:00 22.4 18 Nordeste 24 Nordeste 0 -- -- 72
2019-09-01 06:00:00 22.2 16 Nordeste 24 Nordeste 0 -- -- 72
2019-09-01 05:00:00 22.4 14 Nordeste 24 Norte 0 -- -- 73
2019-09-01 04:00:00 22.5 13 Nordeste 27 Norte 0 -- -- 75
2019-09-01 03:00:00 22.4 20 Nordeste 35 Nordeste 0 -- -- 75
2019-09-01 02:00:00 22.6 15 Nordeste 25 Norte 0 -- -- 76
2019-09-01 01:00:00 22.4 13 Nordeste 29 Norte 0 -- -- 75
2019-09-01 00:00:00 22.6 17 Nordeste 29 Nordeste 0 -- -- 74
2019-08-31 23:00:00 23 14 Norte 29 Norte 0 -- -- 72
2019-08-31 22:00:00 23.4 14 Norte 33 Norte 0 -- -- 70
2019-08-31 21:00:00 23.9 19 Norte 35 Norte 0 -- -- 71
2019-08-31 20:00:00 25.3 19 Norte 32 Norte 0 -- -- 64
2019-08-31 19:00:00 26.9 19 Norte 32 Norte 0 -- -- 61
2019-08-31 18:00:00 27.8 22 Nordeste 33 Nordeste 0 -- -- 58
2019-08-31 17:00:00 27.5 17 Nordeste 33 Este 0 -- -- 58
2019-08-31 16:00:00 27 16 Nordeste 32 Este 0 -- -- 60
2019-08-31 15:00:00 25.4 15 Este 32 Norte 0 -- -- 67
2019-08-31 14:00:00 26.3 20 Nordeste 36 Nordeste 0 -- -- 60
2019-08-31 13:00:00 26.3 24 Nordeste 40 Este 0 -- -- 61
2019-08-31 12:00:00 24.5 19 Este 32 Nordeste 0 -- -- 72
2019-08-31 11:00:00 25.2 17 Nordeste 38 Nordeste 0 -- -- 67
2019-08-31 10:00:00 23.9 24 Nordeste 39 Norte 0 -- -- 72
2019-08-31 09:00:00 23.2 17 Nordeste 27 Norte 0 -- -- 73
2019-08-31 08:00:00 22.1 12 Norte 25 Nordeste 0 -- -- 77
2019-08-31 07:00:00 22.1 14 Nordeste 26 Norte 0 -- -- 78
2019-08-31 06:00:00 22.4 18 Nordeste 30 Norte 0 -- -- 78
2019-08-31 05:00:00 22.5 18 Nordeste 28 Nordeste 0 -- -- 79
2019-08-31 04:00:00 22.5 16 Nordeste 23 Nordeste 0 -- -- 80
2019-08-31 03:00:00 22.4 9 Nordeste 26 Norte 0 -- -- 82
2019-08-31 02:00:00 22.8 13 Nordeste 22 Este 0 -- -- 79
2019-08-31 01:00:00 23.3 8 Nordeste 18 Norte 0 -- -- 78
2019-08-31 00:00:00 23.3 12 Norte 23 Norte 0 -- -- 79
2019-08-30 23:00:00 23.9 12 Nordeste 25 Norte 0 -- -- 76
2019-08-30 22:00:00 24.7 12 Norte 19 Norte 0 -- -- 70
2019-08-30 21:00:00 25.3 12 Nordeste 20 Nordeste 0 -- -- 67
2019-08-30 20:00:00 24.5 3 Sudoeste 17 Sur 0 -- -- 72
2019-08-30 19:00:00 25.9 8 Sudoeste 20 Este 0 -- -- 69
2019-08-30 18:00:00 25 13 Este 29 Este 0 -- -- 73
2019-08-30 17:00:00 25.8 15 Este 33 Este 0 -- -- 70
2019-08-30 16:00:00 27.6 14 Norte 24 Nordeste 0 -- -- 62
2019-08-30 15:00:00 25.1 11 Este 41 Este 0 -- -- 74
2019-08-30 14:00:00 27.2 17 Nordeste 32 Nordeste 0 -- -- 64
2019-08-30 13:00:00 26.9 18 Nordeste 34 Este 0 -- -- 67
2019-08-30 12:00:00 27.3 10 Nordeste 23 Nordeste 0 -- -- 63
2019-08-30 11:00:00 25.4 10 Nordeste 18 Nordeste 0 -- -- 69
2019-08-30 10:00:00 24 3 Este 10 Sudoeste 0 -- -- 77
2019-08-30 09:00:00 23.5 9 Sur 12 Oeste 0 -- -- 81
2019-08-30 08:00:00 23 5 Noroeste 13 Norte 0 -- -- 77
2019-08-30 07:00:00 23 10 Norte 21 Norte 0 -- -- 77
2019-08-30 06:00:00 23.1 14 Norte 23 Norte 0 -- -- 77
2019-08-30 05:00:00 23 9 Norte 24 Norte 0 -- -- 77
2019-08-30 04:00:00 22.7 16 Norte 24 Nordeste 0 -- -- 79
2019-08-30 03:00:00 23 12 Norte 20 Norte 0 -- -- 80
2019-08-30 02:00:00 23.3 13 Norte 24 Norte 0 -- -- 79
2019-08-30 01:00:00 23.2 15 Norte 24 Norte 0 -- -- 80
2019-08-30 00:00:00 23.7 14 Norte 24 Norte 0 -- -- 77
2019-08-29 23:00:00 24.2 15 Nordeste 23 Norte 0 -- -- 75
2019-08-29 22:00:00 23.8 9 Este 24 Nordeste 0 -- -- 79
2019-08-29 21:00:00 24.8 18 Nordeste 28 Norte 0 -- -- 74
2019-08-29 20:00:00 26.7 13 Norte 25 Nordeste 0 -- -- 68
2019-08-29 19:00:00 29.2 13 Nordeste 28 Norte 0 -- -- 58
2019-08-29 18:00:00 30.8 15 Nordeste 27 Nordeste 0 -- -- 54
2019-08-29 17:00:00 30.9 15 Norte 26 Norte 0 -- -- 53
2019-08-29 16:00:00 28.2 14 Este 28 Este 0 -- -- 62
2019-08-29 15:00:00 28.3 8 Este 21 Este 0 -- -- 63
2019-08-29 14:00:00 28.1 14 Nordeste 29 Norte 0 -- -- 62
2019-08-29 13:00:00 26.5 14 Este 32 Este 0 -- -- 70
2019-08-29 12:00:00 26.1 14 Este 36 Este 0 -- -- 69
2019-08-29 11:00:00 25.5 13 Sudeste 23 Este 0 -- -- 71
2019-08-29 10:00:00 26.1 13 Norte 24 Norte 0 -- -- 61
2019-08-29 09:00:00 24.2 15 Norte 26 Norte 0 -- -- 67
2019-08-29 08:00:00 22.9 13 Norte 24 Norte 0 -- -- 71
2019-08-29 07:00:00 23 15 Norte 30 Norte 0 -- -- 68
2019-08-29 06:00:00 23.1 19 Norte 30 Norte 0 -- -- 68
2019-08-29 05:00:00 22.7 14 Norte 35 Norte 0 -- -- 76
2019-08-29 04:00:00 22.8 15 Nordeste 26 Norte 0 -- -- 76
2019-08-29 03:00:00 23 16 Nordeste 28 Norte 0 -- -- 75
2019-08-29 02:00:00 23 18 Nordeste 29 Nordeste 0 -- -- 75
2019-08-29 01:00:00 23.1 20 Nordeste 31 Nordeste 0 -- -- 74
2019-08-29 00:00:00 23.3 19 Nordeste 32 Nordeste 0 -- -- 74
2019-08-28 23:00:00 23.8 22 Nordeste 32 Norte 0 -- -- 71
2019-08-28 22:00:00 24 19 Norte 34 Nordeste 0 -- -- 69
2019-08-28 21:00:00 24.3 21 Norte 35 Norte 0 -- -- 68
2019-08-28 20:00:00 25.9 20 Norte 32 Nordeste 0 -- -- 61
2019-08-28 19:00:00 26.4 8 Oeste 19 Sudoeste 0 -- -- 68
2019-08-28 18:00:00 27.3 8 Sudoeste 23 Este 0 -- -- 65
2019-08-28 17:00:00 26 10 Sudeste 25 Este 0 -- -- 70
2019-08-28 16:00:00 25.6 12 Sudeste 27 Sudeste 0 -- -- 70
2019-08-28 15:00:00 25.5 14 Sudeste 31 Este 0 -- -- 70
2019-08-28 14:00:00 26.8 11 Sudeste 37 Este 0 -- -- 64
2019-08-28 13:00:00 25.2 19 Este 31 Este 0 -- -- 71
2019-08-28 12:00:00 27.2 14 Nordeste 25 Nordeste 0 -- -- 52
2019-08-28 11:00:00 25.3 19 Nordeste 31 Norte 0 -- -- 62
2019-08-28 10:00:00 23.7 21 Nordeste 32 Nordeste 0 -- -- 71
2019-08-28 09:00:00 22.8 18 Norte 29 Norte 0 -- -- 75
2019-08-28 08:00:00 22 11 Nordeste 26 Nordeste 0 -- -- 77
2019-08-28 07:00:00 22 15 Nordeste 35 Nordeste 0 -- -- 77
2019-08-28 06:00:00 22.1 22 Nordeste 34 Norte 0 -- -- 78
2019-08-28 05:00:00 22.2 18 Nordeste 33 Nordeste 0 -- -- 77
2019-08-28 04:00:00 22.2 21 Nordeste 34 Norte 0 -- -- 78
2019-08-28 03:00:00 22.5 14 Norte 26 Nordeste 0 -- -- 76
2019-08-28 02:00:00 22.6 14 Norte 27 Nordeste 0 -- -- 75
2019-08-28 01:00:00 22.9 17 Norte 26 Norte 0 -- -- 75
2019-08-28 00:00:00 23.3 17 Nordeste 23 Nordeste 0 -- -- 74
2019-08-27 23:00:00 24.1 8 Este 28 Noroeste 0 -- -- 71
2019-08-27 22:00:00 24.1 13 Norte 37 Norte 0 -- -- 65
2019-08-27 21:00:00 23.7 23 Norte 35 Norte 0 -- -- 64
2019-08-27 20:00:00 24.1 26 Nordeste 36 Nordeste 0 -- -- 63
2019-08-27 19:00:00 24.4 15 Este 33 Este 0 -- -- 64
2019-08-27 18:00:00 26.1 18 Nordeste 35 Nordeste 0 -- -- 56
2019-08-27 17:00:00 25.5 26 Nordeste 35 Nordeste 0 -- -- 60
2019-08-27 16:00:00 24 22 Este 45 Este 0 -- -- 69
2019-08-27 15:00:00 24 24 Este 52 Este 0 -- -- 71
2019-08-27 14:00:00 25.9 18 Este 32 Norte 0 -- -- 61
2019-08-27 13:00:00 27.3 20 Nordeste 33 Nordeste 0 -- -- 48
2019-08-27 12:00:00 26.6 23 Nordeste 42 Norte 0 -- -- 51
2019-08-27 11:00:00 25.2 29 Nordeste 44 Norte 0 -- -- 60
2019-08-27 10:00:00 24.6 21 Norte 39 Nordeste 0 -- -- 63
2019-08-27 09:00:00 22.8 24 Nordeste 37 Nordeste 0 -- -- 74
2019-08-27 08:00:00 21.7 23 Nordeste 36 Norte 0 -- -- 78
2019-08-27 07:00:00 21.8 18 Norte 29 Nordeste 0 -- -- 78
2019-08-27 06:00:00 21.9 21 Nordeste 35 Nordeste 0 -- -- 77
2019-08-27 05:00:00 22.1 17 Nordeste 33 Nordeste 0 -- -- 76
2019-08-27 04:00:00 22.3 24 Nordeste 39 Nordeste 0 -- -- 73
2019-08-27 03:00:00 22.3 22 Nordeste 41 Nordeste 0 -- -- 72
2019-08-27 02:00:00 22.1 24 Nordeste 40 Norte 0 -- -- 78
2019-08-27 01:00:00 22.4 22 Nordeste 39 Nordeste 0 -- -- 76
2019-08-27 00:00:00 22.5 20 Nordeste 33 Nordeste 0 -- -- 77
2019-08-26 23:00:00 22.6 27 Nordeste 37 Norte 0 -- -- 78
2019-08-26 22:00:00 22.8 26 Nordeste 37 Norte 0 -- -- 76
2019-08-26 21:00:00 23 22 Nordeste 46 Nordeste 0 -- -- 74
2019-08-26 20:00:00 23.2 25 Nordeste 37 Nordeste 0 -- -- 74
2019-08-26 19:00:00 23.8 25 Nordeste 34 Norte 0 -- -- 70
2019-08-26 18:00:00 24.9 21 Nordeste 35 Nordeste 0 -- -- 65
2019-08-26 17:00:00 25.6 17 Este 40 Norte 0 -- -- 60
2019-08-26 16:00:00 26.3 32 Norte 50 Norte 0 -- -- 52
2019-08-26 15:00:00 25.7 26 Nordeste 48 Norte 0 -- -- 59
2019-08-26 14:00:00 26.8 28 Norte 42 Norte 0 -- -- 54
2019-08-26 13:00:00 26.6 20 Norte 39 Norte 0 -- -- 59
2019-08-26 12:00:00 25.2 21 Norte 34 Nordeste 0 -- -- 67
2019-08-26 11:00:00 24.9 22 Nordeste 36 Nordeste 0 -- -- 68
2019-08-26 10:00:00 23.7 29 Norte 44 Norte 0 -- -- 74
2019-08-26 09:00:00 23.3 22 Norte 39 Norte 0 -- -- 75
2019-08-26 08:00:00 23.2 26 Nordeste 40 Norte 0 -- -- 73
2019-08-26 07:00:00 23.7 12 Nordeste 33 Nordeste 0 -- -- 65
2019-08-26 06:00:00 25.2 13 Nordeste 26 Nordeste 0 -- -- 57
2019-08-26 05:00:00 24.7 5 Este 33 Nordeste 0 -- -- 60
2019-08-26 04:00:00 26.2 15 Norte 36 Norte 0 -- -- 51
2019-08-26 03:00:00 23.4 12 Norte 37 Norte 0 -- -- 74
2019-08-26 02:00:00 23 12 Norte 26 Norte 0 -- -- 79
2019-08-26 01:00:00 23.4 14 Norte 29 Nordeste 0 -- -- 75
2019-08-26 00:00:00 23.5 17 Nordeste 63 Este 0 -- -- 74
2019-08-25 23:00:00 24.6 39 Nordeste 60 Nordeste 0 -- -- 69
2019-08-25 22:00:00 25.8 26 Nordeste 38 Norte 0 -- -- 54
2019-08-25 21:00:00 24.6 10 Norte 19 Sur 0 -- -- 73
2019-08-25 20:00:00 23.8 14 Sur 24 Sur 0 -- -- 83
2019-08-25 19:00:00 24.9 19 Sudoeste 39 Nordeste 0 -- -- 77
2019-08-25 18:00:00 29.3 27 Nordeste 50 Norte 0 -- -- 42
2019-08-25 17:00:00 28.3 28 Norte 45 Norte 0 -- -- 54
2019-08-25 16:00:00 27.6 10 Sudeste 47 Norte 0 -- -- 54
2019-08-25 15:00:00 28.1 23 Norte 57 Noroeste 0 -- -- 52
2019-08-25 14:00:00 27.7 20 Norte 45 Norte 0 -- -- 56
2019-08-25 13:00:00 25.7 24 Este 42 Este 0 -- -- 67
2019-08-25 12:00:00 28.2 9 Nordeste 43 Este 0 -- -- 53
2019-08-25 11:00:00 24.2 20 Este 47 Este 0 -- -- 74
2019-08-25 10:00:00 28.5 18 Norte 40 Norte 0 -- -- 47
2019-08-25 09:00:00 26.9 24 Norte 39 Norte 0 -- -- 54
2019-08-25 08:00:00 26.5 22 Norte 37 Norte 0 -- -- 58
2019-08-25 07:00:00 26 18 Noroeste 36 Noroeste 0 -- -- 60
2019-08-25 06:00:00 26.4 17 Norte 31 Nordeste 0 -- -- 59
2019-08-25 05:00:00 27.9 12 Norte 35 Norte 0 -- -- 45
2019-08-25 04:00:00 27.8 16 Norte 43 Norte 0 -- -- 43
2019-08-25 03:00:00 27.9 29 Norte 46 Norte 0 -- -- 43
2019-08-25 02:00:00 30 16 Norte 39 Norte 0 -- -- 33
2019-08-25 01:00:00 29.1 22 Norte 43 Norte 0 -- -- 36
2019-08-25 00:00:00 27.4 28 Norte 53 Norte 0 -- -- 47
2019-08-24 23:00:00 25.5 31 Norte 54 Norte 0 -- -- 62
2019-08-24 22:00:00 25.3 19 Norte 51 Este 0 -- -- 70
2019-08-24 21:00:00 26.6 29 Este 61 Este 0 -- -- 64
2019-08-24 20:00:00 26.2 10 Sudoeste 17 Oeste 0 -- -- 71
2019-08-24 19:00:00 27.8 12 Sur 24 Nordeste 0 -- -- 66
2019-08-24 18:00:00 28.1 11 Sudoeste 23 Oeste 0 -- -- 64
2019-08-24 17:00:00 27.7 16 Sudoeste 22 Sudoeste 0 -- -- 66
2019-08-24 16:00:00 28.8 8 Sur 29 Norte 0 -- -- 61
2019-08-24 15:00:00 32.1 11 Norte 34 Norte 0 -- -- 44
2019-08-24 14:00:00 30.5 27 Nordeste 42 Nordeste 0 -- -- 48
2019-08-24 13:00:00 30.1 24 Nordeste 39 Norte 0 -- -- 49
2019-08-24 12:00:00 28.6 18 Este 31 Este 0 -- -- 55
2019-08-24 11:00:00 26.6 16 Este 34 Este 0 -- -- 66
2019-08-24 10:00:00 27.2 8 Sudoeste 12 Noroeste 0 -- -- 58
2019-08-24 09:00:00 25.6 3 Noroeste 13 Nordeste 0 -- -- 71
2019-08-24 08:00:00 27 13 Nordeste 19 Nordeste 0 -- -- 43
2019-08-24 07:00:00 27.2 12 Nordeste 24 Nordeste 0 -- -- 45
2019-08-24 06:00:00 29.1 13 Norte 33 Norte 0 -- -- 36
2019-08-24 05:00:00 29 21 Norte 32 Norte 0 -- -- 32
2019-08-24 04:00:00 28.4 11 Norte 25 Norte 0 -- -- 36
2019-08-24 03:00:00 27.2 11 Noroeste 30 Norte 0 -- -- 44
2019-08-24 02:00:00 26.4 13 Norte 29 Nordeste 0 -- -- 53
2019-08-24 01:00:00 27 20 Norte 30 Norte 0 -- -- 52
2019-08-24 00:00:00 26.9 10 Nordeste 23 Norte 0 -- -- 56
2019-08-23 23:00:00 25.8 11 Norte 27 Norte 0 -- -- 64
2019-08-23 22:00:00 27 13 Norte 27 Nordeste 0 -- -- 58
2019-08-23 21:00:00 29.3 6 Este 18 Norte 0 -- -- 49
2019-08-23 20:00:00 28.2 7 Norte 17 Norte 0 -- -- 58
2019-08-23 19:00:00 25.6 8 Sur 17 Sudoeste 0 -- -- 75
2019-08-23 18:00:00 27.9 12 Sudoeste 17 Sudoeste 0 -- -- 66
2019-08-23 17:00:00 27.4 11 Sudoeste 28 Norte 0 -- -- 66
2019-08-23 16:00:00 30 16 Este 34 Este 0 -- -- 39
2019-08-23 15:00:00 32.3 19 Nordeste 39 Norte 0 -- -- 36
2019-08-23 14:00:00 26 19 Este 37 Este 0 -- -- 69
2019-08-23 13:00:00 26.7 21 Este 34 Este 0 -- -- 59
2019-08-23 12:00:00 26.5 11 Sudoeste 24 Norte 0 -- -- 70
2019-08-23 11:00:00 29.5 17 Nordeste 24 Nordeste 0 -- -- 44
2019-08-23 10:00:00 27.7 18 Nordeste 24 Nordeste 0 -- -- 51
2019-08-23 09:00:00 24.9 9 Nordeste 23 Norte 0 -- -- 64
2019-08-23 08:00:00 24.3 17 Norte 28 Norte 0 -- -- 65
2019-08-23 07:00:00 24.1 17 Norte 25 Norte 0 -- -- 62
2019-08-23 06:00:00 24.5 8 Norte 17 Norte 0 -- -- 57
2019-08-23 05:00:00 23.9 7 Norte 23 Norte 0 -- -- 60
2019-08-23 04:00:00 24.2 12 Noroeste 21 Norte 0 -- -- 59
2019-08-23 03:00:00 23.5 12 Nordeste 23 Norte 0 -- -- 67
2019-08-23 02:00:00 23.3 15 Norte 27 Norte 0 -- -- 70
2019-08-23 01:00:00 23.1 14 Nordeste 26 Norte 0 -- -- 73
2019-08-23 00:00:00 23.9 16 Nordeste 28 Norte 0 -- -- 67
2019-08-22 23:00:00 23.4 20 Nordeste 31 Norte 0 -- -- 72
2019-08-22 22:00:00 24.2 14 Norte 27 Norte 0 -- -- 68
2019-08-22 21:00:00 25.8 13 Norte 30 Norte 0 -- -- 59
2019-08-22 20:00:00 27.4 20 Norte 30 Norte 0 -- -- 54
2019-08-22 19:00:00 29.2 14 Norte 32 Norte 0 -- -- 49
2019-08-22 18:00:00 30.8 17 Norte 30 Norte 0 -- -- 45
2019-08-22 17:00:00 31.8 15 Norte 35 Nordeste 0 -- -- 45
2019-08-22 16:00:00 31.1 20 Nordeste 37 Nordeste 0 -- -- 38
2019-08-22 15:00:00 30.4 24 Nordeste 37 Nordeste 0 -- -- 42
2019-08-22 14:00:00 29.3 26 Nordeste 38 Nordeste 0 -- -- 40
2019-08-22 13:00:00 30.5 25 Nordeste 36 Nordeste 0 -- -- 34
2019-08-22 12:00:00 29.8 14 Norte 28 Norte 0 -- -- 42
2019-08-22 11:00:00 27.5 14 Nordeste 34 Norte 0 -- -- 47
2019-08-22 10:00:00 24.8 20 Norte 35 Nordeste 0 -- -- 59
2019-08-22 09:00:00 23 15 Norte 28 Norte 0 -- -- 67
2019-08-22 08:00:00 21.4 14 Norte 29 Norte 0 -- -- 73
2019-08-22 07:00:00 21.3 15 Norte 29 Norte 0 -- -- 74
2019-08-22 06:00:00 21.6 17 Norte 31 Noroeste 0 -- -- 73
2019-08-22 05:00:00 21.4 15 Norte 30 Norte 0 -- -- 74
2019-08-22 04:00:00 21.5 13 Norte 29 Norte 0 -- -- 72
2019-08-22 03:00:00 21.8 14 Norte 32 Norte 0 -- -- 71
2019-08-22 02:00:00 22.2 18 Norte 31 Norte 0 -- -- 68
2019-08-22 01:00:00 22.2 18 Norte 37 Norte 0 -- -- 70
2019-08-22 00:00:00 22.4 20 Norte 37 Norte 0 -- -- 68
2019-08-21 23:00:00 22.4 18 Norte 36 Norte 0 -- -- 71
2019-08-21 22:00:00 22.6 20 Norte 39 Norte 0 -- -- 70
2019-08-21 21:00:00 23.3 21 Norte 41 Norte 0 -- -- 67
2019-08-21 20:00:00 24.4 24 Norte 42 Norte 0 -- -- 62
2019-08-21 19:00:00 26.6 23 Norte 39 Norte 0 -- -- 54
2019-08-21 18:00:00 28.3 18 Nordeste 37 Nordeste 0 -- -- 52
2019-08-21 17:00:00 28.8 24 Nordeste 44 Nordeste 0 -- -- 48
2019-08-21 16:00:00 28.4 28 Nordeste 42 Nordeste 0 -- -- 45
2019-08-21 15:00:00 28 27 Nordeste 46 Nordeste 0 -- -- 47
2019-08-21 14:00:00 27.8 25 Nordeste 40 Nordeste 0 -- -- 49
2019-08-21 13:00:00 27.1 26 Nordeste 40 Norte 0 -- -- 48
2019-08-21 12:00:00 26.9 24 Nordeste 41 Nordeste 0 -- -- 52
2019-08-21 11:00:00 26.1 17 Norte 35 Norte 0 -- -- 57
2019-08-21 10:00:00 24.2 23 Norte 39 Norte 0 -- -- 63
2019-08-21 09:00:00 22.6 21 Norte 41 Norte 0 -- -- 70
2019-08-21 08:00:00 21.3 18 Norte 36 Norte 0 -- -- 76
2019-08-21 07:00:00 21.1 19 Norte 35 Norte 0 -- -- 76
2019-08-21 06:00:00 21 16 Norte 31 Norte 0 -- -- 76
2019-08-21 05:00:00 21.1 15 Norte 27 Norte 0 -- -- 77
2019-08-21 04:00:00 21.3 14 Nordeste 26 Nordeste 0 -- -- 74
2019-08-21 03:00:00 21.7 15 Norte 32 Norte 0 -- -- 70
2019-08-21 02:00:00 21.7 18 Norte 34 Norte 0 -- -- 72
2019-08-21 01:00:00 22.1 18 Norte 32 Norte 0 -- -- 70
2019-08-21 00:00:00 22.5 15 Norte 31 Norte 0 -- -- 70
2019-08-20 23:00:00 22.8 15 Norte 28 Norte 0 -- -- 71
2019-08-20 22:00:00 23.4 17 Norte 26 Norte 0 -- -- 70
2019-08-20 21:00:00 24.3 16 Nordeste 27 Norte 0 -- -- 69
2019-08-20 20:00:00 25.5 18 Nordeste 29 Norte 0 -- -- 65
2019-08-20 19:00:00 27 19 Nordeste 31 Nordeste 0 -- -- 60
2019-08-20 18:00:00 27.5 15 Este 35 Nordeste 0 -- -- 58
2019-08-20 17:00:00 29 24 Nordeste 41 Nordeste 0 -- -- 49
2019-08-20 16:00:00 29.1 22 Nordeste 48 Nordeste 0 -- -- 48
2019-08-20 15:00:00 29.1 28 Nordeste 42 Nordeste 0 -- -- 40
2019-08-20 14:00:00 29.4 22 Nordeste 38 Nordeste 0 -- -- 36
2019-08-20 13:00:00 30.1 26 Nordeste 44 Norte 0 -- -- 30
2019-08-20 12:00:00 28.9 27 Nordeste 44 Nordeste 0 -- -- 31
2019-08-20 11:00:00 27.9 22 Nordeste 38 Nordeste 0 -- -- 46
2019-08-20 10:00:00 25.7 14 Norte 31 Norte 0 -- -- 59
2019-08-20 09:00:00 23.4 14 Norte 26 Norte 0 -- -- 70
2019-08-20 08:00:00 21.5 12 Norte 23 Noroeste 0 -- -- 74
2019-08-20 07:00:00 20.7 8 Noroeste 28 Norte 0 -- -- 79
2019-08-20 06:00:00 21.2 23 Norte 36 Norte 0 -- -- 78
2019-08-20 05:00:00 21.3 20 Norte 34 Norte 0 -- -- 79
2019-08-20 04:00:00 21.5 23 Norte 40 Nordeste 0 -- -- 79
2019-08-20 03:00:00 21.5 29 Norte 38 Norte 0 -- -- 79
2019-08-20 02:00:00 22 21 Norte 36 Norte 0 -- -- 77
2019-08-20 01:00:00 22.2 8 Nordeste 24 Norte 0 -- -- 77
2019-08-20 00:00:00 23 15 Norte 26 Norte 0 -- -- 74